Time;durP1;ratioP1;P1;durP2;ratioP2;P2;SDS_P1;SDS_P2;PMS_P1;PMS_P2;Temp;Humidity;BMP_temperature;BMP_pressure;BME280_temperature;BME280_humidity;BME280_pressure;Samples;Min_cycle;Max_cycle;Signal;HPM_P1;HPM_P2
2023/06/08 00:01:35;;;;;;;7.50;3.72;;;;;;;17.44;74.39;95049.81;4961224;28;20372;-62
2023/06/08 00:04:05;;;;;;;4.03;3.47;;;;;;;17.34;74.62;95055.50;4962350;28;20375;-63
2023/06/08 00:06:33;;;;;;;9.15;3.38;;;;;;;17.21;74.66;95064.88;4964654;28;20275;-67
2023/06/08 00:09:02;;;;;;;4.50;3.10;;;;;;;17.25;74.54;95060.38;4961620;28;20228;-65
2023/06/08 00:11:29;;;;;;;4.13;3.40;;;;;;;17.12;74.28;95044.03;4960271;28;20287;-62
2023/06/08 00:13:55;;;;;;;3.30;3.08;;;;;;;17.19;74.09;95068.44;4960846;28;20307;-67
2023/06/08 00:16:22;;;;;;;4.43;3.20;;;;;;;17.19;74.10;95073.56;4962857;28;20251;-62
2023/06/08 00:18:49;;;;;;;4.97;3.30;;;;;;;17.23;73.80;95072.47;4961978;28;21849;-64
2023/06/08 00:21:16;;;;;;;3.55;3.25;;;;;;;17.24;73.82;95069.00;4960348;28;20706;-61
2023/06/08 00:23:43;;;;;;;3.25;3.03;;;;;;;17.11;73.66;95042.38;4961909;28;20228;-62
2023/06/08 00:26:11;;;;;;;4.80;3.45;;;;;;;17.20;73.62;95070.09;4961516;28;20335;-64
2023/06/08 00:28:38;;;;;;;5.68;3.30;;;;;;;17.22;73.64;95073.41;4960939;28;20201;-61
2023/06/08 00:31:04;;;;;;;3.83;3.50;;;;;;;17.13;73.88;95076.50;4959576;28;20292;-62
2023/06/08 00:33:31;;;;;;;4.30;3.25;;;;;;;17.14;73.85;95071.28;4961700;28;20295;-64
2023/06/08 00:36:00;;;;;;;3.33;2.92;;;;;;;17.13;73.88;95079.06;4960936;28;20299;-63
2023/06/08 00:38:27;;;;;;;3.88;3.17;;;;;;;17.06;74.21;95070.09;4962377;28;20267;-61
2023/06/08 00:40:54;;;;;;;3.25;3.05;;;;;;;16.99;74.19;95073.00;4961257;28;21827;-66
2023/06/08 00:43:22;;;;;;;3.95;3.22;;;;;;;16.94;74.91;95069.06;4961213;28;20276;-65
2023/06/08 00:45:48;;;;;;;3.25;3.05;;;;;;;16.95;74.71;95063.84;4962147;28;20197;-66
2023/06/08 00:48:16;;;;;;;3.15;2.67;;;;;;;16.81;75.17;95066.38;4962152;28;20220;-65
2023/06/08 00:50:45;;;;;;;5.28;3.03;;;;;;;16.76;75.23;95060.69;4962787;28;20919;-62
2023/06/08 00:53:12;;;;;;;3.20;2.85;;;;;;;16.83;75.22;95054.25;4960781;28;20219;-65
2023/06/08 00:55:39;;;;;;;5.18;2.97;;;;;;;16.79;75.23;95052.00;4961408;28;20319;-63
2023/06/08 00:58:11;;;;;;;2.60;2.40;;;;;;;16.73;75.57;95063.44;4961159;28;20240;-65
2023/06/08 01:00:40;;;;;;;6.78;3.58;;;;;;;16.70;75.79;95062.78;4959200;28;20726;-60
2023/06/08 01:03:07;;;;;;;4.60;2.88;;;;;;;16.62;76.35;95058.03;4960169;28;20288;-64
2023/06/08 01:05:34;;;;;;;2.97;2.72;;;;;;;16.62;76.46;95063.16;4961458;28;20225;-64
2023/06/08 01:08:17;;;;;;;6.05;3.15;;;;;;;16.56;76.57;95060.97;4959972;28;20265;-61
2023/06/08 01:10:50;;;;;;;3.20;2.95;;;;;;;16.54;76.70;95062.81;4960654;28;20212;-62
2023/06/08 01:13:25;;;;;;;3.20;2.90;;;;;;;16.48;77.03;95058.00;4961127;28;20766;-62
2023/06/08 01:15:59;;;;;;;3.35;3.13;;;;;;;16.38;77.41;95060.25;4960620;28;20263;-62
2023/06/08 01:18:32;;;;;;;3.40;3.10;;;;;;;16.25;77.83;95062.69;4961938;28;20299;-64
2023/06/08 01:21:07;;;;;;;2.90;2.70;;;;;;;16.18;78.09;95058.81;4959947;28;20209;-63
2023/06/08 01:23:44;;;;;;;2.90;2.70;;;;;;;16.16;78.59;95064.94;4960022;28;21227;-63
2023/06/08 01:26:15;;;;;;;3.47;2.97;;;;;;;16.11;78.61;95064.34;4960318;28;20671;-64
2023/06/08 01:28:43;;;;;;;3.10;2.83;;;;;;;16.09;78.60;95068.72;4960903;28;20240;-61
2023/06/08 01:31:10;;;;;;;2.85;2.65;;;;;;;16.06;78.76;95062.06;4963232;28;22560;-60
2023/06/08 01:33:37;;;;;;;4.82;2.92;;;;;;;15.96;79.00;95050.66;4964648;28;20215;-64
2023/06/08 01:36:09;;;;;;;2.53;2.33;;;;;;;15.94;79.23;95062.72;4962535;28;20216;-60
2023/06/08 01:38:42;;;;;;;3.25;2.95;;;;;;;15.99;79.50;95076.13;4973186;28;20213;-58
2023/06/08 01:41:17;;;;;;;5.28;3.70;;;;;;;15.96;79.12;95068.59;4973577;28;20240;-60
2023/06/08 01:43:47;;;;;;;3.30;2.67;;;;;;;15.93;79.37;95061.06;4968085;28;20254;-62
2023/06/08 01:46:17;;;;;;;6.20;2.53;;;;;;;15.95;79.08;95064.38;4963485;28;20281;-59
2023/06/08 01:48:46;;;;;;;6.93;3.05;;;;;;;15.92;79.32;95060.22;4963265;28;20267;-63
2023/06/08 01:51:14;;;;;;;9.55;3.65;;;;;;;15.97;78.95;95063.38;4961489;28;20232;-62
2023/06/08 01:53:41;;;;;;;5.35;3.25;;;;;;;15.94;79.16;95067.84;4960538;28;20208;-64
2023/06/08 01:56:08;;;;;;;11.55;3.85;;;;;;;15.97;78.82;95068.50;4962173;28;20319;-61
2023/06/08 01:58:36;;;;;;;4.10;3.13;;;;;;;15.91;79.24;95058.59;4961092;28;20884;-63
2023/06/08 02:01:03;;;;;;;2.75;2.53;;;;;;;15.99;78.79;95060.75;4970028;28;20224;-61
2023/06/08 02:03:29;;;;;;;6.03;3.33;;;;;;;15.88;78.86;95047.66;4966148;28;21616;-62
2023/06/08 02:05:56;;;;;;;3.65;3.42;;;;;;;15.92;78.72;95061.97;4963403;28;20320;-64
2023/06/08 02:08:23;;;;;;;3.63;3.33;;;;;;;15.86;79.15;95052.88;4959161;28;20268;-64
2023/06/08 02:10:49;;;;;;;5.65;3.28;;;;;;;15.86;79.31;95058.00;4958621;28;20296;-65
2023/06/08 02:13:16;;;;;;;2.80;2.60;;;;;;;15.84;79.59;95046.19;4959119;28;20290;-63
2023/06/08 02:15:44;;;;;;;3.20;2.92;;;;;;;15.87;79.34;95056.25;4959259;28;20201;-63
2023/06/08 02:18:11;;;;;;;3.47;3.17;;;;;;;15.89;79.23;95050.16;4959891;28;20291;-64
2023/06/08 02:20:37;;;;;;;3.20;2.83;;;;;;;15.92;79.01;95044.84;4959987;28;20938;-64
2023/06/08 02:23:04;;;;;;;4.97;3.13;;;;;;;15.82;79.45;95053.16;4959385;28;20304;-64
2023/06/08 02:25:31;;;;;;;3.60;3.20;;;;;;;15.75;79.39;95051.81;4958543;28;20232;-64
2023/06/08 02:27:58;;;;;;;3.35;3.15;;;;;;;15.80;79.46;95054.97;4959892;28;20212;-62
2023/06/08 02:30:25;;;;;;;3.92;3.33;;;;;;;15.76;79.61;95053.47;4960271;28;20275;-63
2023/06/08 02:32:53;;;;;;;3.38;3.10;;;;;;;15.70;79.55;95046.09;4959225;28;20240;-64
2023/06/08 02:35:20;;;;;;;5.32;3.00;;;;;;;15.76;79.40;95049.19;4958995;28;20607;-62
2023/06/08 02:37:46;;;;;;;3.05;2.85;;;;;;;15.89;79.12;95044.19;4960150;28;20240;-61
2023/06/08 02:40:13;;;;;;;5.60;3.38;;;;;;;15.82;79.72;95048.03;4959315;28;20802;-64
2023/06/08 02:42:40;;;;;;;4.97;3.22;;;;;;;15.82;79.47;95048.03;4958689;28;20747;-62
2023/06/08 02:45:07;;;;;;;7.25;3.00;;;;;;;15.90;79.16;95049.25;4958845;28;21085;-65
2023/06/08 02:47:34;;;;;;;4.25;3.47;;;;;;;15.86;78.98;95044.34;4959657;28;20311;-65
2023/06/08 02:50:02;;;;;;;3.58;3.28;;;;;;;15.85;79.19;95043.53;4958013;28;20720;-61
2023/06/08 02:52:29;;;;;;;3.28;2.95;;;;;;;15.96;78.75;95046.34;4959388;28;20267;-63
2023/06/08 02:54:55;;;;;;;3.85;3.38;;;;;;;16.04;78.21;95056.19;4958441;28;20297;-64
2023/06/08 02:57:22;;;;;;;4.60;2.90;;;;;;;15.99;78.49;95050.47;4959640;28;20308;-64
2023/06/08 02:59:49;;;;;;;4.50;3.47;;;;;;;16.10;77.80;95060.97;4958113;28;20201;-64
2023/06/08 03:02:16;;;;;;;5.75;3.72;;;;;;;16.08;77.91;95060.25;4960004;28;20291;-62
2023/06/08 03:04:45;;;;;;;4.47;3.85;;;;;;;16.18;77.49;95065.66;4959493;28;20261;-65
2023/06/08 03:07:15;;;;;;;6.07;3.33;;;;;;;16.24;77.01;95066.16;4960271;28;20312;-63
2023/06/08 03:09:41;;;;;;;3.63;3.33;;;;;;;16.23;76.53;95064.50;4959042;28;20791;-63
2023/06/08 03:12:10;;;;;;;3.58;2.80;;;;;;;16.11;76.84;95064.34;4963837;28;20307;-63
2023/06/08 03:14:38;;;;;;;3.90;3.38;;;;;;;16.18;76.69;95060.53;4962695;28;20209;-63
2023/06/08 03:17:05;;;;;;;3.88;3.58;;;;;;;16.19;76.25;95052.78;4962623;28;20215;-62
2023/06/08 03:19:32;;;;;;;4.35;3.30;;;;;;;16.19;75.90;95052.78;4962530;28;20462;-63
2023/06/08 03:22:00;;;;;;;8.25;3.22;;;;;;;16.17;76.38;95069.97;4963050;28;20719;-64
2023/06/08 03:24:28;;;;;;;3.65;3.17;;;;;;;16.16;76.49;95058.06;4961989;28;20300;-65
2023/06/08 03:26:55;;;;;;;4.50;3.63;;;;;;;16.17;76.60;95049.47;4962818;28;20209;-65
2023/06/08 03:29:22;;;;;;;4.75;3.25;;;;;;;16.34;76.17;95057.03;4962391;28;20213;-62
2023/06/08 03:31:49;;;;;;;5.22;3.40;;;;;;;16.82;74.41;95055.22;4961850;28;20297;-64
2023/06/08 03:34:17;;;;;;;4.32;3.25;;;;;;;17.34;71.79;95059.81;4962511;28;20883;-62
2023/06/08 03:36:44;;;;;;;6.13;3.15;;;;;;;17.97;69.43;95065.38;4962011;28;20285;-66
2023/06/08 03:39:12;;;;;;;3.65;3.35;;;;;;;18.67;66.79;95065.22;4962850;28;20243;-64
2023/06/08 03:41:40;;;;;;;3.28;2.92;;;;;;;19.27;63.98;95067.25;4962010;28;20245;-63
2023/06/08 03:44:07;;;;;;;5.45;3.25;;;;;;;19.83;62.43;95067.69;4961128;28;20303;-63
2023/06/08 03:46:34;;;;;;;4.18;3.05;;;;;;;20.38;59.98;95070.63;4961454;28;20749;-63
2023/06/08 03:49:00;;;;;;;4.05;3.75;;;;;;;20.47;59.60;95068.34;4963130;28;20219;-64
2023/06/08 03:51:27;;;;;;;3.67;3.33;;;;;;;20.44;59.81;95073.72;4961517;28;20279;-66
2023/06/08 03:53:54;;;;;;;3.45;3.10;;;;;;;20.45;59.37;95068.44;4963625;28;20312;-64
2023/06/08 03:56:20;;;;;;;4.38;3.38;;;;;;;19.87;60.67;95069.97;4961953;28;20296;-66
2023/06/08 03:58:51;;;;;;;3.88;3.53;;;;;;;19.50;62.02;95076.84;4960901;28;20205;-61
2023/06/08 04:01:18;;;;;;;6.53;3.72;;;;;;;19.29;62.63;95063.63;4962127;28;20213;-62
2023/06/08 04:03:45;;;;;;;4.93;2.90;;;;;;;19.34;63.43;95076.19;4962914;28;20354;-63
2023/06/08 04:06:11;;;;;;;3.85;3.55;;;;;;;19.08;63.93;95074.53;4960505;28;20631;-65
2023/06/08 04:08:40;;;;;;;9.55;3.60;;;;;;;19.10;64.23;95077.84;4960529;28;20213;-67
2023/06/08 04:11:08;;;;;;;3.92;3.45;;;;;;;19.08;63.64;95077.09;4960543;28;21731;-66
2023/06/08 04:13:36;;;;;;;9.57;4.07;;;;;;;19.06;63.55;95055.78;4959420;28;20205;-64
2023/06/08 04:16:08;;;;;;;8.00;3.53;;;;;;;19.32;63.38;95068.56;4962115;28;20360;-62
2023/06/08 04:18:35;;;;;;;3.60;3.33;;;;;;;19.34;63.54;95071.84;4960667;28;20303;-65
2023/06/08 04:21:02;;;;;;;4.78;4.07;;;;;;;19.44;63.19;95077.22;4959347;28;20304;-64
2023/06/08 04:23:29;;;;;;;6.13;3.20;;;;;;;19.66;62.02;95056.81;4962120;28;20231;-65
2023/06/08 04:25:56;;;;;;;5.10;3.40;;;;;;;20.15;61.57;95068.00;4962379;28;20235;-67
2023/06/08 04:28:22;;;;;;;4.97;3.53;;;;;;;20.49;59.11;95061.31;4960178;28;20209;-65
2023/06/08 04:30:49;;;;;;;3.85;3.53;;;;;;;20.81;59.06;95067.50;4962071;28;20655;-62
2023/06/08 04:33:17;;;;;;;5.50;3.63;;;;;;;21.15;58.04;95065.00;4963226;28;20666;-65
2023/06/08 04:35:44;;;;;;;5.85;3.38;;;;;;;21.56;56.63;95062.72;4963028;28;20291;-65
2023/06/08 04:38:14;;;;;;;5.30;4.07;;;;;;;21.93;55.86;95067.63;4964101;28;20236;-62
2023/06/08 04:40:41;;;;;;;9.02;4.43;;;;;;;22.32;54.68;95069.69;4962202;28;20280;-67
2023/06/08 04:43:09;;;;;;;6.47;4.18;;;;;;;22.96;53.00;95074.06;4962964;28;20299;-66
2023/06/08 04:45:36;;;;;;;4.07;3.67;;;;;;;23.44;50.75;95066.56;4962293;28;20272;-61
2023/06/08 04:48:03;;;;;;;3.53;3.22;;;;;;;23.49;51.44;95069.59;4962514;28;21041;-69
2023/06/08 04:50:33;;;;;;;7.20;3.60;;;;;;;23.74;51.18;95070.97;4961155;28;20299;-67
2023/06/08 04:53:01;;;;;;;5.20;3.40;;;;;;;24.00;50.03;95063.53;4963748;28;20209;-66
2023/06/08 04:55:28;;;;;;;4.72;3.20;;;;;;;23.93;50.09;95070.22;4962074;28;20212;-64
2023/06/08 04:57:55;;;;;;;5.72;4.28;;;;;;;23.78;50.48;95071.50;4962403;28;20237;-67
2023/06/08 05:00:22;;;;;;;6.13;3.80;;;;;;;23.53;50.68;95063.22;4960573;28;20272;-65
2023/06/08 05:02:49;;;;;;;5.38;3.85;;;;;;;23.44;50.37;95066.56;4962890;28;20709;-67
2023/06/08 05:05:16;;;;;;;6.03;3.92;;;;;;;23.50;50.91;95068.66;4960864;28;20232;-65
2023/06/08 05:07:44;;;;;;;4.20;3.78;;;;;;;23.66;50.11;95063.84;4961994;28;20303;-64
2023/06/08 05:10:11;;;;;;;3.70;3.28;;;;;;;23.79;50.16;95065.38;4962292;28;20212;-63
2023/06/08 05:12:38;;;;;;;4.68;4.13;;;;;;;23.71;49.96;95069.47;4962026;28;20276;-64
2023/06/08 05:15:05;;;;;;;5.03;3.75;;;;;;;23.44;50.35;95048.41;4961495;28;21844;-64
2023/06/08 05:17:32;;;;;;;14.80;3.83;;;;;;;23.44;50.39;95071.75;4962309;28;20631;-68
2023/06/08 05:19:59;;;;;;;5.57;4.30;;;;;;;23.65;50.93;95067.38;4959101;28;20895;-67
2023/06/08 05:22:26;;;;;;;5.30;3.80;;;;;;;23.68;49.80;95072.31;4960706;28;20209;-65
2023/06/08 05:24:54;;;;;;;4.93;3.67;;;;;;;23.55;51.38;95066.50;4960715;28;20301;-68
2023/06/08 05:27:21;;;;;;;10.02;3.55;;;;;;;23.77;50.25;95069.84;4960671;28;20753;-66
2023/06/08 05:29:47;;;;;;;6.03;3.20;;;;;;;23.71;50.08;95066.88;4960591;28;20283;-65
2023/06/08 05:32:14;;;;;;;4.57;3.05;;;;;;;23.69;49.91;95073.94;4960691;28;20205;-69
2023/06/08 05:34:41;;;;;;;5.55;3.20;;;;;;;23.50;50.19;95081.63;4961975;28;20213;-65
2023/06/08 05:37:07;;;;;;;8.05;3.60;;;;;;;23.07;50.13;95072.22;4961935;28;20515;-64
2023/06/08 05:39:34;;;;;;;5.35;4.18;;;;;;;22.91;51.44;95082.22;4960724;28;20212;-68
2023/06/08 05:42:02;;;;;;;4.45;3.85;;;;;;;23.30;51.28;95082.44;4960596;28;20259;-65
2023/06/08 05:44:29;;;;;;;3.58;3.28;;;;;;;23.80;50.16;95085.16;4959891;28;20765;-67
2023/06/08 05:46:56;;;;;;;5.70;3.75;;;;;;;24.44;48.60;95079.66;4960556;28;20307;-70
2023/06/08 05:49:22;;;;;;;13.00;3.67;;;;;;;25.72;45.70;95068.84;4960347;28;20304;-65
2023/06/08 05:51:49;;;;;;;3.40;3.03;;;;;;;27.10;42.63;95070.31;4958659;28;20221;-68
2023/06/08 05:54:16;;;;;;;8.18;3.78;;;;;;;28.39;40.49;95066.75;4960695;28;22200;-65
2023/06/08 05:56:42;;;;;;;6.65;3.35;;;;;;;29.64;36.96;95059.44;4959934;28;20295;-70
2023/06/08 05:59:10;;;;;;;4.53;3.80;;;;;;;30.61;35.11;95065.28;4959336;28;20291;-67
2023/06/08 06:01:37;;;;;;;5.43;3.65;;;;;;;30.57;33.94;95046.44;4958433;28;22051;-68
2023/06/08 06:04:04;;;;;;;11.27;3.80;;;;;;;30.29;34.19;95063.63;4960874;28;20818;-70
2023/06/08 06:06:32;;;;;;;6.57;3.33;;;;;;;30.38;34.80;95062.59;4958865;28;20810;-67
2023/06/08 06:08:58;;;;;;;9.10;3.97;;;;;;;31.79;32.94;95064.63;4958488;28;20319;-67
2023/06/08 06:11:26;;;;;;;6.95;3.45;;;;;;;33.00;31.08;95050.84;4957728;28;20245;-67
2023/06/08 06:13:53;;;;;;;4.68;4.03;;;;;;;33.90;29.15;95050.13;4959754;28;20325;-69
2023/06/08 06:16:21;;;;;;;8.27;4.13;;;;;;;33.60;28.57;95060.06;4959209;28;20890;-66
2023/06/08 06:18:48;;;;;;;5.80;3.47;;;;;;;32.10;30.81;95061.78;4960938;28;20213;-67
2023/06/08 06:21:15;;;;;;;6.45;3.35;;;;;;;31.09;32.22;95045.72;4960126;28;20694;-69
2023/06/08 06:23:41;;;;;;;5.45;3.20;;;;;;;30.53;33.64;95055.63;4959697;28;20232;-66
2023/06/08 06:26:08;;;;;;;3.85;2.90;;;;;;;31.04;32.69;95053.31;4967170;28;20630;-63
2023/06/08 06:28:35;;;;;;;4.45;3.65;;;;;;;32.21;31.44;95055.25;4970226;28;20238;-64
2023/06/08 06:31:02;;;;;;;4.40;3.13;;;;;;;34.64;26.56;95025.66;4966812;28;20238;-67
2023/06/08 06:33:30;;;;;;;8.90;3.20;;;;;;;37.35;23.83;95046.88;4965982;28;20213;-68
2023/06/08 06:35:57;;;;;;;5.65;3.67;;;;;;;39.69;21.55;95048.78;4959643;28;20262;-70
2023/06/08 06:38:23;;;;;;;3.42;3.10;;;;;;;41.29;20.03;95042.63;4962236;28;20456;-68
2023/06/08 06:40:52;;;;;;;4.35;3.05;;;;;;;41.21;19.31;95033.16;4959480;28;20298;-69
2023/06/08 06:43:20;;;;;;;3.90;3.50;;;;;;;41.06;19.38;95027.56;4961174;28;20209;-69
2023/06/08 06:45:50;;;;;;;6.75;3.63;;;;;;;40.40;19.53;95029.81;4962936;28;20225;-69
2023/06/08 06:48:18;;;;;;;10.32;3.80;;;;;;;40.39;19.83;95033.53;4966161;28;20299;-68
2023/06/08 06:50:46;;;;;;;4.45;3.65;;;;;;;41.66;19.76;95021.56;4969301;28;20260;-66
2023/06/08 06:53:14;;;;;;;4.75;3.35;;;;;;;43.83;17.91;95029.41;4970854;28;20216;-67
2023/06/08 06:55:40;;;;;;;4.38;3.58;;;;;;;44.37;16.59;95028.06;4967479;28;20761;-64
2023/06/08 06:58:08;;;;;;;7.25;3.78;;;;;;;43.57;17.56;95026.56;4968088;28;20216;-70
2023/06/08 07:00:37;;;;;;;5.22;3.25;;;;;;;43.42;17.50;95021.94;4962570;28;20219;-66
2023/06/08 07:03:04;;;;;;;8.45;3.63;;;;;;;44.02;17.12;95011.91;4963262;28;20216;-68
2023/06/08 07:05:31;;;;;;;3.33;3.13;;;;;;;45.01;16.23;95006.28;4963374;28;20853;-70
2023/06/08 07:07:59;;;;;;;4.30;3.30;;;;;;;46.17;15.83;95004.50;4962921;28;20354;-68
2023/06/08 07:10:26;;;;;;;5.88;3.45;;;;;;;45.39;16.15;95004.94;4962685;28;20586;-68
2023/06/08 07:12:52;;;;;;;3.65;3.33;;;;;;;45.25;16.49;95003.06;4962063;28;20814;-69
2023/06/08 07:15:19;;;;;;;4.75;3.33;;;;;;;45.71;16.00;95001.94;4963228;28;20220;-66
2023/06/08 07:17:46;;;;;;;4.57;3.63;;;;;;;45.82;15.67;95007.28;4963202;28;20209;-70
2023/06/08 07:20:13;;;;;;;3.75;3.28;;;;;;;44.66;16.27;95009.69;4963816;28;21643;-69
2023/06/08 07:22:40;;;;;;;4.20;3.40;;;;;;;44.18;16.70;94978.72;4963259;28;20706;-70
2023/06/08 07:25:09;;;;;;;3.50;3.03;;;;;;;45.81;16.34;94997.59;4961980;28;20843;-68
2023/06/08 07:27:35;;;;;;;5.95;3.13;;;;;;;46.07;15.41;94997.28;4963129;28;20225;-68
2023/06/08 07:30:03;;;;;;;3.75;3.28;;;;;;;45.01;16.07;95002.78;4963986;28;20213;-66
2023/06/08 07:32:30;;;;;;;3.47;3.20;;;;;;;43.53;17.64;95000.59;4962961;28;20689;-71
2023/06/08 07:34:56;;;;;;;4.30;3.85;;;;;;;43.35;18.19;94996.44;4963497;28;20209;-68
2023/06/08 07:37:23;;;;;;;4.47;3.63;;;;;;;43.41;17.17;94992.75;4960206;28;20452;-67
2023/06/08 07:39:50;;;;;;;8.40;4.10;;;;;;;44.33;16.94;94992.16;4962400;28;20205;-65
2023/06/08 07:42:18;;;;;;;3.88;3.58;;;;;;;44.69;17.12;94985.03;4963537;28;20252;-69
2023/06/08 07:44:44;;;;;;;3.92;3.28;;;;;;;43.11;17.56;94985.28;4961979;28;20322;-67
2023/06/08 07:47:11;;;;;;;4.97;3.60;;;;;;;40.88;19.70;94993.13;4961197;28;20264;-67
2023/06/08 07:49:38;;;;;;;3.95;3.67;;;;;;;40.21;20.92;94988.41;4962512;28;20387;-70
2023/06/08 07:52:05;;;;;;;5.60;3.92;;;;;;;39.63;21.84;94980.53;4959969;28;20228;-65
2023/06/08 07:54:32;;;;;;;3.40;3.10;;;;;;;40.01;21.56;94985.38;4961173;28;20205;-66
2023/06/08 07:56:59;;;;;;;5.25;4.15;;;;;;;40.40;20.58;94981.06;4958511;28;20288;-70
2023/06/08 07:59:28;;;;;;;3.88;3.58;;;;;;;40.13;21.26;94986.13;4961859;28;20624;-67
2023/06/08 08:01:54;;;;;;;3.70;3.40;;;;;;;40.98;20.63;94971.97;4962438;28;20758;-70
2023/06/08 08:04:21;;;;;;;3.95;3.65;;;;;;;42.55;19.51;94982.13;4961558;28;20303;-70
2023/06/08 08:06:48;;;;;;;3.85;3.58;;;;;;;43.83;18.55;94982.03;4962309;28;20327;-64
2023/06/08 08:09:14;;;;;;;7.72;3.10;;;;;;;43.74;17.70;94984.44;4963113;28;20209;-68
2023/06/08 08:11:41;;;;;;;4.65;3.55;;;;;;;42.41;19.67;94979.03;4960455;28;20327;-63
2023/06/08 08:14:09;;;;;;;4.47;3.80;;;;;;;41.10;20.25;94973.50;4962000;28;20201;-68
2023/06/08 08:16:38;;;;;;;7.88;3.60;;;;;;;39.93;21.31;94983.06;4962807;28;22216;-66
2023/06/08 08:19:05;;;;;;;4.07;3.78;;;;;;;40.02;21.00;94979.00;4963172;28;20236;-68
2023/06/08 08:21:32;;;;;;;3.83;3.63;;;;;;;41.52;20.40;94972.28;4962138;28;20209;-68
2023/06/08 08:23:58;;;;;;;5.28;4.03;;;;;;;41.05;20.91;94970.78;4962330;28;20624;-67
2023/06/08 08:26:25;;;;;;;3.20;3.00;;;;;;;40.63;21.84;94970.28;4961299;28;20228;-64
2023/06/08 08:28:52;;;;;;;3.60;3.30;;;;;;;38.73;23.25;94975.47;4960335;28;20209;-73
2023/06/08 08:31:18;;;;;;;5.22;3.45;;;;;;;38.33;23.59;94972.56;4962680;28;20217;-69
2023/06/08 08:33:46;;;;;;;5.00;3.83;;;;;;;38.38;24.07;94965.53;4963826;28;20309;-66
2023/06/08 08:36:13;;;;;;;6.80;5.22;;;;;;;40.07;23.04;94968.44;4964990;28;20311;-68
2023/06/08 08:38:40;;;;;;;6.20;4.00;;;;;;;42.55;20.24;94966.09;4964722;28;20212;-67
2023/06/08 08:41:11;;;;;;;6.20;3.97;;;;;;;43.41;19.32;94963.31;4961832;28;20621;-66
2023/06/08 08:43:46;;;;;;;6.68;3.67;;;;;;;41.43;20.70;94958.53;4963619;28;20212;-70
2023/06/08 08:46:15;;;;;;;3.95;3.65;;;;;;;40.35;21.98;94963.13;4962831;28;20208;-63
2023/06/08 08:48:43;;;;;;;3.88;3.38;;;;;;;38.56;24.25;94970.03;4961947;28;20244;-64
2023/06/08 08:51:18;;;;;;;3.58;3.28;;;;;;;36.97;25.40;94964.81;4964610;28;20225;-66
2023/06/08 08:53:47;;;;;;;6.15;3.70;;;;;;;36.62;27.22;94962.63;4963965;28;20208;-65
2023/06/08 08:56:17;;;;;;;3.95;3.58;;;;;;;37.50;26.30;94965.16;4962462;28;20297;-65
2023/06/08 08:58:46;;;;;;;7.43;6.78;;;;;;;38.97;24.67;94966.50;4961792;28;20213;-66
2023/06/08 09:01:13;;;;;;;9.57;5.20;;;;;;;40.20;22.75;94956.69;4961297;28;20241;-65
2023/06/08 09:03:40;;;;;;;5.82;3.90;;;;;;;41.47;21.83;94954.34;4962029;28;20677;-64
2023/06/08 09:06:07;;;;;;;5.50;3.67;;;;;;;39.53;23.04;94954.56;4961049;28;20698;-65
2023/06/08 09:08:36;;;;;;;4.57;4.28;;;;;;;38.57;24.54;94954.91;4961704;28;20209;-66
2023/06/08 09:11:05;;;;;;;3.40;3.10;;;;;;;39.02;23.72;94953.38;4962325;28;20228;-64
2023/06/08 09:13:32;;;;;;;3.63;3.33;;;;;;;39.12;23.70;94947.47;4962632;28;20213;-66
2023/06/08 09:16:09;;;;;;;4.30;3.92;;;;;;;38.84;24.12;94948.16;4961419;28;20271;-64
2023/06/08 09:18:36;;;;;;;4.85;3.63;;;;;;;38.73;24.39;94946.28;4962793;28;20288;-64
2023/06/08 09:21:22;;;;;;;6.40;3.83;;;;;;;36.03;26.72;94936.47;4963602;28;20208;-66
2023/06/08 09:24:07;;;;;;;4.15;3.63;;;;;;;34.85;29.35;94942.84;4961063;28;20301;-64
2023/06/08 09:26:36;;;;;;;9.05;3.10;;;;;;;34.49;30.31;94943.19;4961848;28;20232;-66
2023/06/08 09:29:05;;;;;;;5.68;3.50;;;;;;;34.17;29.95;94937.63;4963135;28;20225;-66
2023/06/08 09:31:32;;;;;;;4.88;3.47;;;;;;;33.86;30.08;94945.25;4960493;28;20221;-63
2023/06/08 09:34:06;;;;;;;3.72;3.42;;;;;;;31.97;33.03;94935.44;4961935;28;20217;-63
2023/06/08 09:36:36;;;;;;;4.95;3.53;;;;;;;30.70;36.04;94940.91;4961036;28;20209;-65
2023/06/08 09:39:06;;;;;;;4.32;3.90;;;;;;;29.79;38.36;94945.09;4962496;28;20209;-67
2023/06/08 09:41:33;;;;;;;4.47;3.72;;;;;;;28.86;40.71;94944.06;4959418;28;20241;-66
2023/06/08 09:44:01;;;;;;;3.50;3.20;;;;;;;28.87;41.07;94932.63;4960503;28;20497;-66
2023/06/08 09:46:36;;;;;;;7.95;3.58;;;;;;;28.18;42.07;94933.91;4962950;28;20219;-62
2023/06/08 09:49:05;;;;;;;7.32;3.90;;;;;;;27.31;45.17;94937.69;4960856;28;20319;-62
2023/06/08 09:51:35;;;;;;;3.60;3.30;;;;;;;26.77;46.33;94936.22;4958723;28;20232;-63
2023/06/08 09:54:02;;;;;;;4.97;3.30;;;;;;;27.05;45.10;94926.47;4958089;28;20219;-63
2023/06/08 09:56:31;;;;;;;3.83;3.40;;;;;;;27.60;44.72;94918.25;4959359;28;21485;-64
2023/06/08 09:58:58;;;;;;;3.78;3.58;;;;;;;27.80;43.92;94924.03;4958174;28;21064;-64
2023/06/08 10:01:33;;;;;;;4.60;3.35;;;;;;;28.22;43.51;94919.53;4958722;28;20204;-63
2023/06/08 10:04:10;;;;;;;4.53;3.45;;;;;;;28.10;42.64;94920.81;4959509;28;20216;-63
2023/06/08 10:06:37;;;;;;;7.70;3.38;;;;;;;27.53;43.99;94907.59;4959828;28;20209;-64
2023/06/08 10:09:08;;;;;;;3.72;3.22;;;;;;;27.30;44.68;94914.38;4960155;28;20209;-64
2023/06/08 10:11:37;;;;;;;5.57;3.17;;;;;;;27.42;45.99;94913.94;4958964;28;20299;-64
2023/06/08 10:14:04;;;;;;;6.55;3.83;;;;;;;27.82;44.47;94907.22;4960551;28;20344;-63
2023/06/08 10:16:31;;;;;;;9.73;3.38;;;;;;;27.98;43.98;94912.47;4958836;28;20204;-66
2023/06/08 10:18:59;;;;;;;7.95;3.25;;;;;;;27.85;44.36;94911.31;4960640;28;20212;-64
2023/06/08 10:21:27;;;;;;;3.78;3.33;;;;;;;27.81;43.62;94899.53;4957856;28;20769;-64
2023/06/08 10:23:56;;;;;;;3.30;3.10;;;;;;;27.50;44.22;94897.47;4961381;28;20295;-67
2023/06/08 10:26:23;;;;;;;3.92;3.67;;;;;;;27.33;44.77;94891.38;4960550;28;20246;-63
2023/06/08 10:29:10;;;;;;;4.20;3.90;;;;;;;27.55;44.42;94886.56;4959612;28;20251;-63
2023/06/08 10:31:39;;;;;;;4.65;3.58;;;;;;;27.17;43.96;94882.69;4958683;28;20209;-62
2023/06/08 10:34:09;;;;;;;3.20;3.00;;;;;;;26.75;44.97;94865.16;4960378;28;20593;-64
2023/06/08 10:36:39;;;;;;;5.13;3.63;;;;;;;26.85;45.97;94886.72;4960106;28;20207;-64
2023/06/08 10:39:10;;;;;;;6.22;3.20;;;;;;;26.91;44.10;94867.06;4961101;28;20209;-64
2023/06/08 10:41:44;;;;;;;5.68;2.72;;;;;;;27.07;44.56;94881.00;4958997;28;20236;-63
2023/06/08 10:44:27;;;;;;;3.38;3.17;;;;;;;27.18;44.78;94881.72;4959733;28;20283;-65
2023/06/08 10:47:01;;;;;;;2.95;2.75;;;;;;;27.17;44.35;94880.91;4961297;28;20291;-62
2023/06/08 10:49:38;;;;;;;3.42;3.15;;;;;;;26.96;45.17;94876.09;4959448;28;20244;-65
2023/06/08 10:52:06;;;;;;;6.10;2.67;;;;;;;26.73;44.99;94877.53;4959000;28;20235;-64
2023/06/08 10:54:47;;;;;;;3.13;2.92;;;;;;;26.88;44.58;94867.34;4960956;28;20221;-66
2023/06/08 10:57:35;;;;;;;3.92;2.63;;;;;;;26.93;45.45;94852.88;4959837;28;20295;-64
2023/06/08 11:00:43;;;;;;;4.63;2.63;;;;;;;27.13;45.57;94860.50;4960577;28;20221;-65
2023/06/08 11:03:16;;;;;;;3.42;3.13;;;;;;;27.25;43.26;94854.00;4960976;28;20656;-64
2023/06/08 11:05:44;;;;;;;3.55;3.33;;;;;;;27.23;42.14;94850.72;4959033;28;20205;-63
2023/06/08 11:08:12;;;;;;;3.50;3.20;;;;;;;27.32;43.42;94845.41;4959525;28;21138;-65
2023/06/08 11:10:40;;;;;;;6.80;3.38;;;;;;;27.05;43.67;94832.56;4961359;28;20339;-64
2023/06/08 11:13:08;;;;;;;5.05;3.17;;;;;;;27.07;44.00;94844.50;4958118;28;20215;-66
2023/06/08 11:15:37;;;;;;;3.38;3.08;;;;;;;27.10;44.34;94828.53;4961062;28;20328;-65
2023/06/08 11:18:07;;;;;;;5.40;3.05;;;;;;;27.08;43.86;94817.44;4959362;28;21791;-64
2023/06/08 11:20:35;;;;;;;3.92;3.17;;;;;;;27.19;43.69;94842.44;4961400;28;20702;-64
2023/06/08 11:23:03;;;;;;;3.25;2.95;;;;;;;26.81;44.07;94830.66;4960920;28;20212;-65
2023/06/08 11:25:30;;;;;;;3.75;3.45;;;;;;;26.75;45.61;94813.00;4960015;28;20213;-64
2023/06/08 11:27:57;;;;;;;4.18;3.30;;;;;;;26.95;44.84;94819.69;4959146;28;20336;-64
2023/06/08 11:30:27;;;;;;;4.45;3.42;;;;;;;27.19;44.94;94810.31;4960202;28;20746;-65
2023/06/08 11:32:55;;;;;;;4.97;3.45;;;;;;;27.24;45.82;94815.84;4961839;28;20213;-64
2023/06/08 11:35:23;;;;;;;4.07;2.83;;;;;;;26.99;44.03;94815.75;4963411;28;20213;-65
2023/06/08 11:37:50;;;;;;;3.20;3.00;;;;;;;27.14;44.41;94797.72;4965543;28;20229;-64
2023/06/08 11:40:17;;;;;;;3.45;3.15;;;;;;;27.67;43.76;94801.78;4963104;28;20346;-64